createdAt,value
2018-11-02T00:00:27.152Z,50.83
2018-11-02T00:01:02.040Z,56.15
2018-11-02T00:01:36.836Z,48.78
2018-11-02T00:02:11.702Z,54.15
2018-11-02T00:02:46.616Z,46.98
2018-11-02T00:03:21.541Z,54.33
2018-11-02T00:03:56.842Z,49.98
2018-11-02T00:04:31.694Z,50.67
2018-11-02T00:05:07.042Z,41.77
2018-11-02T00:05:42.034Z,26.90
2018-11-02T00:06:16.969Z,37.25
2018-11-02T00:06:51.936Z,34.83
2018-11-02T00:07:26.894Z,25.40
2018-11-02T00:08:01.782Z,30.45
2018-11-02T00:08:36.795Z,31.10
2018-11-02T00:09:11.475Z,32.53
2018-11-02T00:09:46.314Z,34.88
2018-11-02T00:10:21.074Z,51.53
2018-11-02T00:10:56.055Z,47.73
2018-11-02T00:11:31.122Z,42.33
2018-11-02T00:12:06.117Z,32.67
2018-11-02T00:12:41.068Z,39.58
2018-11-02T00:13:16.002Z,37.83
2018-11-02T00:13:51.935Z,30.62
2018-11-02T00:14:26.835Z,35.38
2018-11-02T00:15:01.655Z,30.57
2018-11-02T00:15:36.415Z,42.62
2018-11-02T00:16:11.115Z,36.25
2018-11-02T00:16:45.815Z,33.00
2018-11-02T00:17:20.695Z,35.73
2018-11-02T00:17:55.334Z,37.65
2018-11-02T00:18:30.075Z,47.65
2018-11-02T00:19:04.815Z,32.70
2018-11-02T00:19:39.435Z,38.40
2018-11-02T00:20:14.234Z,40.43
2018-11-02T00:20:49.015Z,33.53
2018-11-02T00:21:23.903Z,34.43
2018-11-02T00:21:58.935Z,38.65
2018-11-02T00:22:33.835Z,42.03
2018-11-02T00:23:08.602Z,43.90
2018-11-02T00:23:43.342Z,38.67
2018-11-02T00:24:18.235Z,33.67
2018-11-02T00:24:52.894Z,44.20
2018-11-02T00:25:27.714Z,38.92
2018-11-02T00:26:02.314Z,38.80
2018-11-02T00:26:37.135Z,41.88
2018-11-02T00:27:11.998Z,34.00
2018-11-02T00:27:46.955Z,45.63
2018-11-02T00:28:21.735Z,39.15
2018-11-02T00:28:56.414Z,36.53
2018-11-02T00:29:32.687Z,45.80
2018-11-02T00:30:07.721Z,47.30
2018-11-02T00:30:42.496Z,37.60
2018-11-02T00:31:17.084Z,43.95
2018-11-02T00:31:51.932Z,48.70
2018-11-02T00:32:26.636Z,38.65
2018-11-02T00:33:01.603Z,34.65
2018-11-02T00:33:36.595Z,49.13
2018-11-02T00:34:11.461Z,44.25
2018-11-02T00:34:46.058Z,35.80
2018-11-02T00:35:21.003Z,42.05
2018-11-02T00:35:56.094Z,36.88
2018-11-02T00:36:31.195Z,45.90
2018-11-02T00:37:06.915Z,42.80
2018-11-02T00:37:41.974Z,41.42
2018-11-02T00:38:17.064Z,43.23
2018-11-02T00:38:51.874Z,36.30
2018-11-02T00:39:26.763Z,35.88
2018-11-02T00:40:01.727Z,45.73
2018-11-02T00:40:36.916Z,45.40
2018-11-02T00:41:11.995Z,41.70
2018-11-02T00:41:46.743Z,41.92
2018-11-02T00:42:22.164Z,37.28
2018-11-02T00:42:56.834Z,43.10
2018-11-02T00:43:31.790Z,39.88
2018-11-02T00:44:07.076Z,44.88
2018-11-02T00:44:41.735Z,44.30
2018-11-02T00:45:16.503Z,39.80
2018-11-02T00:45:51.294Z,44.53
2018-11-02T00:46:26.363Z,40.80
2018-11-02T00:47:01.476Z,42.98
2018-11-02T00:47:36.655Z,44.13
2018-11-02T00:48:11.496Z,36.98
2018-11-02T00:48:46.563Z,40.95
2018-11-02T00:49:21.415Z,40.30
2018-11-02T00:49:56.134Z,35.40
2018-11-02T00:50:30.894Z,39.98
2018-11-02T00:51:05.554Z,38.63
2018-11-02T00:51:40.335Z,35.90
2018-11-02T00:52:15.094Z,47.33
2018-11-02T00:52:50.182Z,40.17
2018-11-02T00:53:25.354Z,43.42
2018-11-02T00:54:00.555Z,48.87
2018-11-02T00:54:35.555Z,41.00
2018-11-02T00:55:10.875Z,46.08
2018-11-02T00:55:46.034Z,41.45
2018-11-02T00:56:21.055Z,43.45
2018-11-02T00:56:56.096Z,41.50
2018-11-02T00:57:31.216Z,42.83
2018-11-02T00:58:06.115Z,46.45
2018-11-02T00:58:40.975Z,45.70
2018-11-02T00:59:15.762Z,49.23
2018-11-02T00:59:50.582Z,49.75
2018-11-02T01:00:25.718Z,44.90
2018-11-02T01:01:00.780Z,40.78
2018-11-02T01:01:35.954Z,43.28
2018-11-02T01:02:10.858Z,44.30
2018-11-02T01:02:45.974Z,41.75
2018-11-02T01:03:21.303Z,45.00
2018-11-02T01:03:56.016Z,37.75
2018-11-02T01:04:30.754Z,49.48
2018-11-02T01:05:06.074Z,34.13
2018-11-02T01:05:40.955Z,37.17
2018-11-02T01:06:15.863Z,39.25
2018-11-02T01:06:50.654Z,38.92
2018-11-02T01:07:25.365Z,44.03
2018-11-02T01:08:00.434Z,36.85
2018-11-02T01:08:35.136Z,43.80
2018-11-02T01:09:11.263Z,42.78
2018-11-02T01:09:46.294Z,42.55
2018-11-02T01:10:21.034Z,42.90
2018-11-02T01:10:55.635Z,43.40
2018-11-02T01:11:30.295Z,34.38
2018-11-02T01:12:05.356Z,42.33
2018-11-02T01:12:40.196Z,43.42
2018-11-02T01:13:14.794Z,41.83
2018-11-02T01:13:49.535Z,33.18
2018-11-02T01:14:24.554Z,33.18
2018-11-02T01:14:59.707Z,36.10
2018-11-02T01:15:34.802Z,43.10
2018-11-02T01:16:10.055Z,45.33
2018-11-02T01:16:45.228Z,43.63
2018-11-02T01:17:20.194Z,41.00
2018-11-02T01:17:55.335Z,45.95
2018-11-02T01:18:30.453Z,42.70
2018-11-02T01:19:05.514Z,40.63
2018-11-02T01:19:40.576Z,32.10
2018-11-02T01:20:15.517Z,35.65
2018-11-02T01:20:50.634Z,40.30
2018-11-02T01:21:25.834Z,37.53
2018-11-02T01:22:01.102Z,37.28
2018-11-02T01:22:36.355Z,36.58
2018-11-02T01:23:11.238Z,38.35
2018-11-02T01:23:46.216Z,42.83
2018-11-02T01:24:21.454Z,46.88
2018-11-02T01:24:56.434Z,32.00
2018-11-02T01:25:31.435Z,39.27
2018-11-02T01:26:06.954Z,53.28
2018-11-02T01:26:41.935Z,54.67
2018-11-02T01:27:17.142Z,49.48
2018-11-02T01:27:52.295Z,53.00
2018-11-02T01:28:27.375Z,51.55
2018-11-02T01:29:02.215Z,58.48
2018-11-02T01:29:37.156Z,58.45
2018-11-02T01:30:12.156Z,49.42
2018-11-02T01:30:47.155Z,50.38
2018-11-02T01:31:22.214Z,53.15
2018-11-02T01:31:57.283Z,40.12
2018-11-02T01:32:32.314Z,44.95
2018-11-02T01:33:07.535Z,45.65
2018-11-02T01:33:42.595Z,34.15
2018-11-02T01:34:17.476Z,35.00
2018-11-02T01:34:52.456Z,32.90
2018-11-02T01:35:27.294Z,29.32
2018-11-02T01:36:02.181Z,23.50
2018-11-02T01:36:37.082Z,34.40
2018-11-02T01:37:12.037Z,33.15
2018-11-02T01:37:46.963Z,32.13
2018-11-02T01:38:21.735Z,29.27
2018-11-02T01:38:56.534Z,28.38
2018-11-02T01:39:31.415Z,29.02
2018-11-02T01:40:07.074Z,29.42
2018-11-02T01:40:41.995Z,28.00
2018-11-02T01:41:17.003Z,27.50
2018-11-02T01:41:51.995Z,32.10
2018-11-02T01:42:27.136Z,24.95
2018-11-02T01:43:01.735Z,31.05
2018-11-02T01:43:36.643Z,29.65
2018-11-02T01:44:11.454Z,31.05
2018-11-02T01:44:46.262Z,26.27
2018-11-02T01:45:21.015Z,39.75
2018-11-02T01:45:55.774Z,27.07
2018-11-02T01:46:30.334Z,25.17
2018-11-02T01:47:05.015Z,32.38
2018-11-02T01:47:39.816Z,24.98
2018-11-02T01:48:14.486Z,30.77
2018-11-02T01:48:49.155Z,32.23
2018-11-02T01:49:23.834Z,34.88
2018-11-02T01:49:58.663Z,21.73
2018-11-02T01:50:33.510Z,26.60
2018-11-02T01:51:08.186Z,28.57
2018-11-02T01:51:43.113Z,22.77
2018-11-02T01:52:17.862Z,27.77
2018-11-02T01:52:52.814Z,27.27
2018-11-02T01:53:27.934Z,26.68
2018-11-02T01:54:02.696Z,28.98
2018-11-02T01:54:37.844Z,27.37
2018-11-02T01:55:12.962Z,25.92
2018-11-02T01:55:48.463Z,32.73
2018-11-02T01:56:23.436Z,31.80
2018-11-02T01:56:58.534Z,32.33
2018-11-02T01:57:33.555Z,38.35
2018-11-02T01:58:08.756Z,38.13
2018-11-02T01:58:43.599Z,37.48
2018-11-02T01:59:18.922Z,40.35
2018-11-02T01:59:54.055Z,37.75
2018-11-02T02:00:28.934Z,35.70
2018-11-02T02:01:03.794Z,40.00
2018-11-02T02:01:38.442Z,39.65
2018-11-02T02:02:13.549Z,41.05
2018-11-02T02:02:48.404Z,36.85
2018-11-02T02:03:23.194Z,39.60
2018-11-02T02:03:58.194Z,35.28
2018-11-02T02:04:32.814Z,35.38
2018-11-02T02:05:08.039Z,44.33
2018-11-02T02:05:42.899Z,42.65
2018-11-02T02:06:17.756Z,35.10
2018-11-02T02:06:52.594Z,40.90
2018-11-02T02:07:27.515Z,42.15
2018-11-02T02:08:02.416Z,36.75
2018-11-02T02:08:37.475Z,36.50
2018-11-02T02:09:12.942Z,42.55
2018-11-02T02:09:47.663Z,38.25
2018-11-02T02:10:22.455Z,40.28
2018-11-02T02:10:57.334Z,38.98
2018-11-02T02:11:32.276Z,36.35
2018-11-02T02:12:07.235Z,39.83
2018-11-02T02:12:42.104Z,37.38
2018-11-02T02:13:16.866Z,40.50
2018-11-02T02:13:51.875Z,40.00
2018-11-02T02:14:26.994Z,46.83
2018-11-02T02:15:02.160Z,33.33
2018-11-02T02:15:37.208Z,33.80
2018-11-02T02:16:12.375Z,38.05
2018-11-02T02:16:47.014Z,37.08
2018-11-02T02:17:22.194Z,33.38
2018-11-02T02:17:57.075Z,42.75
2018-11-02T02:18:31.795Z,42.10
2018-11-02T02:19:07.356Z,33.98
2018-11-02T02:19:42.137Z,32.13
2018-11-02T02:20:16.874Z,38.23
2018-11-02T02:20:51.549Z,31.62
2018-11-02T02:21:26.362Z,29.25
2018-11-02T02:22:01.214Z,39.08
2018-11-02T02:22:36.374Z,33.73
2018-11-02T02:23:11.597Z,34.15
2018-11-02T02:23:46.594Z,31.87
2018-11-02T02:24:21.322Z,27.10
2018-11-02T02:24:56.275Z,33.00
2018-11-02T02:25:30.994Z,33.00
2018-11-02T02:26:05.889Z,30.68
2018-11-02T02:26:40.638Z,30.80
2018-11-02T02:27:15.675Z,33.50
2018-11-02T02:27:50.435Z,28.95
2018-11-02T02:28:25.254Z,35.50
2018-11-02T02:29:00.235Z,31.15
2018-11-02T02:29:35.154Z,30.88
2018-11-02T02:30:12.755Z,37.80
2018-11-02T02:30:47.674Z,32.20
2018-11-02T02:31:22.323Z,37.30
2018-11-02T02:31:57.215Z,36.68
2018-11-02T02:32:32.242Z,31.62
2018-11-02T02:33:07.246Z,35.58
2018-11-02T02:33:42.294Z,31.85
2018-11-02T02:34:17.315Z,30.95
2018-11-02T02:34:52.315Z,37.38
2018-11-02T02:35:27.622Z,34.80
2018-11-02T02:36:02.748Z,36.90
2018-11-02T02:36:37.895Z,30.52
2018-11-02T02:37:13.083Z,35.40
2018-11-02T02:37:47.914Z,27.95
2018-11-02T02:38:22.854Z,37.03
2018-11-02T02:38:57.821Z,30.95
2018-11-02T02:39:32.915Z,33.10
2018-11-02T02:40:09.495Z,27.25
2018-11-02T02:40:44.595Z,32.73
2018-11-02T02:41:19.575Z,34.75
2018-11-02T02:41:54.596Z,28.05
2018-11-02T02:42:29.503Z,28.85
2018-11-02T02:43:04.698Z,30.30
2018-11-02T02:43:39.615Z,29.70
2018-11-02T02:44:14.515Z,31.30
2018-11-02T02:44:49.775Z,35.88
2018-11-02T02:45:25.056Z,32.45
2018-11-02T02:46:00.155Z,35.30
2018-11-02T02:46:35.334Z,29.87
2018-11-02T02:47:10.194Z,30.40
2018-11-02T02:47:45.295Z,39.88
2018-11-02T02:48:20.454Z,34.18
2018-11-02T02:48:55.447Z,33.23
2018-11-02T02:49:30.202Z,28.75
2018-11-02T02:50:05.895Z,30.85
2018-11-02T02:50:40.783Z,36.35
2018-11-02T02:51:15.715Z,32.67
2018-11-02T02:51:50.843Z,33.13
2018-11-02T02:52:25.915Z,29.65
2018-11-02T02:53:00.943Z,30.90
2018-11-02T02:53:35.975Z,37.85
2018-11-02T02:54:10.955Z,29.90
2018-11-02T02:54:45.875Z,37.30
2018-11-02T02:55:20.814Z,36.53
2018-11-02T02:55:55.534Z,34.35
2018-11-02T02:56:30.434Z,31.10
2018-11-02T02:57:05.374Z,37.17
2018-11-02T02:57:40.415Z,28.80
2018-11-02T02:58:15.454Z,38.08
2018-11-02T02:58:50.434Z,30.92
2018-11-02T02:59:25.433Z,29.82
2018-11-02T03:00:00.534Z,34.58
2018-11-02T03:00:35.514Z,30.10
2018-11-02T03:01:10.755Z,31.55
2018-11-02T03:01:46.135Z,29.10
2018-11-02T03:02:21.095Z,33.48
2018-11-02T03:02:56.245Z,26.70
2018-11-02T03:03:31.414Z,36.05
2018-11-02T03:04:06.502Z,26.37
2018-11-02T03:04:42.316Z,30.92
2018-11-02T03:05:17.275Z,33.75
2018-11-02T03:05:52.175Z,31.42
2018-11-02T03:06:27.236Z,24.52
2018-11-02T03:07:02.055Z,25.37
2018-11-02T03:07:36.994Z,21.87
2018-11-02T03:08:11.915Z,22.35
2018-11-02T03:08:46.947Z,29.12
2018-11-02T03:09:21.614Z,37.58
2018-11-02T03:09:56.398Z,33.28
2018-11-02T03:10:31.227Z,35.92
2018-11-02T03:11:06.390Z,29.80
2018-11-02T03:11:41.194Z,30.97
2018-11-02T03:12:15.974Z,28.90
2018-11-02T03:12:50.954Z,27.55
2018-11-02T03:13:25.874Z,30.65
2018-11-02T03:14:00.614Z,25.52
2018-11-02T03:14:35.662Z,25.57
2018-11-02T03:15:10.576Z,23.75
2018-11-02T03:15:45.676Z,23.62
2018-11-02T03:16:20.634Z,21.95
2018-11-02T03:16:55.435Z,32.35
2018-11-02T03:17:30.062Z,34.92
2018-11-02T03:18:04.735Z,29.15
2018-11-02T03:18:39.549Z,32.80
2018-11-02T03:19:14.436Z,29.23
2018-11-02T03:19:49.554Z,26.48
2018-11-02T03:20:24.740Z,23.92
2018-11-02T03:20:59.656Z,30.57
2018-11-02T03:21:34.418Z,24.55
2018-11-02T03:22:09.422Z,29.90
2018-11-02T03:22:44.538Z,22.93
2018-11-02T03:23:19.443Z,24.60
2018-11-02T03:23:54.556Z,22.60
2018-11-02T03:24:29.656Z,32.90
2018-11-02T03:25:04.595Z,31.20
2018-11-02T03:25:39.196Z,22.02
2018-11-02T03:26:13.857Z,29.90
2018-11-02T03:26:48.774Z,33.08
2018-11-02T03:27:23.454Z,31.30
2018-11-02T03:27:58.555Z,30.57
2018-11-02T03:28:33.315Z,25.15
2018-11-02T03:29:08.080Z,29.40
2018-11-02T03:29:42.795Z,23.32
2018-11-02T03:30:17.694Z,29.25
2018-11-02T03:30:52.536Z,30.32
2018-11-02T03:31:27.375Z,28.25
2018-11-02T03:32:02.522Z,28.23
2018-11-02T03:32:37.516Z,31.68
2018-11-02T03:33:12.159Z,27.95
2018-11-02T03:33:46.837Z,31.25
2018-11-02T03:34:21.553Z,25.55
2018-11-02T03:34:56.234Z,24.07
2018-11-02T03:35:31.114Z,33.55
2018-11-02T03:36:06.034Z,35.92
2018-11-02T03:36:40.954Z,28.07
2018-11-02T03:37:15.654Z,22.75
2018-11-02T03:37:50.595Z,28.92
2018-11-02T03:38:25.402Z,27.93
2018-11-02T03:39:00.116Z,29.52
2018-11-02T03:39:34.994Z,29.37
2018-11-02T03:40:11.214Z,29.57
2018-11-02T03:40:46.317Z,27.35
2018-11-02T03:41:21.294Z,34.60
2018-11-02T03:41:56.316Z,27.42
2018-11-02T03:42:31.253Z,23.00
2018-11-02T03:43:06.175Z,25.92
2018-11-02T03:43:41.154Z,29.05
2018-11-02T03:44:15.874Z,29.18
2018-11-02T03:44:50.714Z,29.65
2018-11-02T03:45:25.713Z,28.87
2018-11-02T03:46:00.715Z,28.17
2018-11-02T03:46:35.535Z,33.65
2018-11-02T03:47:10.454Z,16.48
2018-11-02T03:47:45.664Z,30.17
2018-11-02T03:48:20.783Z,35.05
2018-11-02T03:48:55.763Z,27.62
2018-11-02T03:49:30.542Z,21.27
2018-11-02T03:50:06.410Z,26.25
2018-11-02T03:50:41.377Z,24.60
2018-11-02T03:51:16.815Z,20.08
2018-11-02T03:51:51.643Z,24.05
2018-11-02T03:52:26.435Z,25.48
2018-11-02T03:53:01.214Z,29.42
2018-11-02T03:53:35.955Z,31.73
2018-11-02T03:54:10.734Z,24.72
2018-11-02T03:54:45.913Z,28.23
2018-11-02T03:55:21.103Z,25.72
2018-11-02T03:55:56.136Z,26.15
2018-11-02T03:56:31.304Z,29.80
2018-11-02T03:57:06.933Z,27.73
2018-11-02T03:57:41.954Z,15.05
2018-11-02T03:58:17.216Z,22.20
2018-11-02T03:58:52.373Z,28.17
2018-11-02T03:59:27.374Z,21.02
2018-11-02T04:00:02.335Z,23.20
2018-11-02T04:00:37.438Z,20.10
2018-11-02T04:01:12.454Z,24.92
2018-11-02T04:01:47.578Z,28.12
2018-11-02T04:02:22.630Z,22.42
2018-11-02T04:02:57.658Z,27.90
2018-11-02T04:03:32.893Z,19.32
2018-11-02T04:04:08.081Z,27.65
2018-11-02T04:04:42.954Z,33.42
2018-11-02T04:05:17.994Z,29.40
2018-11-02T04:05:52.799Z,26.82
2018-11-02T04:06:27.622Z,23.92
2018-11-02T04:07:02.474Z,23.02
2018-11-02T04:07:37.182Z,33.98
2018-11-02T04:08:11.913Z,32.13
2018-11-02T04:08:46.973Z,24.20
2018-11-02T04:09:21.948Z,34.45
2018-11-02T04:09:56.882Z,26.50
2018-11-02T04:10:31.673Z,35.25
2018-11-02T04:11:06.976Z,34.58
2018-11-02T04:11:42.095Z,27.80
2018-11-02T04:12:17.134Z,20.88
2018-11-02T04:12:51.894Z,23.57
2018-11-02T04:13:26.854Z,26.40
2018-11-02T04:14:02.074Z,30.77
2018-11-02T04:14:36.994Z,29.35
2018-11-02T04:15:12.044Z,32.30
2018-11-02T04:15:46.982Z,25.50
2018-11-02T04:16:22.262Z,26.27
2018-11-02T04:16:57.194Z,29.10
2018-11-02T04:17:32.255Z,29.45
2018-11-02T04:18:07.537Z,21.60
2018-11-02T04:18:42.474Z,28.75
2018-11-02T04:19:17.514Z,21.52
2018-11-02T04:19:52.595Z,22.35
2018-11-02T04:20:27.662Z,32.20
2018-11-02T04:21:02.676Z,19.80
2018-11-02T04:21:41.336Z,28.62
2018-11-02T04:22:16.040Z,24.50
2018-11-02T04:22:50.734Z,32.55
2018-11-02T04:23:25.574Z,25.43
2018-11-02T04:24:00.454Z,27.00
2018-11-02T04:24:35.515Z,24.45
2018-11-02T04:25:10.615Z,26.52
2018-11-02T04:25:45.876Z,30.72
2018-11-02T04:26:21.102Z,26.20
2018-11-02T04:26:56.195Z,27.20
2018-11-02T04:27:31.228Z,25.62
2018-11-02T04:28:06.114Z,26.80
2018-11-02T04:28:40.816Z,25.05
2018-11-02T04:29:16.233Z,22.67
2018-11-02T04:29:51.156Z,23.98
2018-11-02T04:30:26.154Z,23.85
2018-11-02T04:31:01.069Z,24.00
2018-11-02T04:31:36.014Z,23.35
2018-11-02T04:32:10.755Z,22.62
2018-11-02T04:32:45.562Z,28.73
2018-11-02T04:33:20.634Z,27.40
2018-11-02T04:33:55.356Z,27.25
2018-11-02T04:34:30.399Z,25.68
2018-11-02T04:35:05.316Z,27.07
2018-11-02T04:35:40.073Z,39.38
2018-11-02T04:36:14.994Z,23.95
2018-11-02T04:36:49.694Z,25.52
2018-11-02T04:37:24.474Z,23.83
2018-11-02T04:37:59.354Z,31.77
2018-11-02T04:38:34.478Z,32.35
2018-11-02T04:39:11.414Z,23.22
2018-11-02T04:39:46.402Z,26.55
2018-11-02T04:40:21.294Z,25.80
2018-11-02T04:40:56.510Z,26.85
2018-11-02T04:41:31.729Z,23.05
2018-11-02T04:42:06.789Z,23.47
2018-11-02T04:42:41.977Z,24.18
2018-11-02T04:43:17.070Z,23.35
2018-11-02T04:43:52.273Z,22.52
2018-11-02T04:44:27.590Z,28.77
2018-11-02T04:45:02.669Z,26.48
2018-11-02T04:45:38.710Z,19.35
2018-11-02T04:46:13.909Z,24.05
2018-11-02T04:46:49.210Z,26.27
2018-11-02T04:47:24.412Z,30.77
2018-11-02T04:47:59.489Z,28.38
2018-11-02T04:48:34.652Z,26.52
2018-11-02T04:49:10.252Z,22.48
2018-11-02T04:49:45.390Z,25.55
2018-11-02T04:50:20.770Z,23.67
2018-11-02T04:50:56.008Z,19.45
2018-11-02T04:51:31.129Z,31.50
2018-11-02T04:52:06.830Z,22.05
2018-11-02T04:52:41.950Z,28.98
2018-11-02T04:53:17.037Z,30.70
2018-11-02T04:53:54.670Z,22.10
2018-11-02T04:54:29.730Z,22.77
2018-11-02T04:55:04.850Z,29.37
2018-11-02T04:55:40.249Z,18.12
2018-11-02T04:56:15.612Z,22.85
2018-11-02T04:56:50.931Z,26.93
2018-11-02T04:57:26.150Z,26.05
2018-11-02T04:58:01.330Z,24.65
2018-11-02T04:58:36.670Z,20.05
2018-11-02T04:59:11.729Z,20.92
2018-11-02T04:59:47.172Z,24.43
2018-11-02T05:00:22.990Z,17.62
2018-11-02T05:01:02.532Z,28.62
2018-11-02T05:01:37.749Z,28.35
2018-11-02T05:02:13.076Z,28.83
2018-11-02T05:02:48.788Z,19.98
2018-11-02T05:03:24.190Z,27.40
2018-11-02T05:03:59.669Z,23.92
2018-11-02T05:04:34.930Z,20.50
2018-11-02T05:05:10.390Z,27.58
2018-11-02T05:05:45.929Z,18.40
2018-11-02T05:06:21.389Z,34.67
2018-11-02T05:06:56.509Z,24.02
2018-11-02T05:07:31.829Z,24.70
2018-11-02T05:08:07.049Z,30.45
2018-11-02T05:08:42.594Z,24.52
2018-11-02T05:09:17.871Z,31.65
2018-11-02T05:09:52.984Z,21.05
2018-11-02T05:10:28.132Z,33.20
2018-11-02T05:11:03.170Z,24.35
2018-11-02T05:11:38.289Z,26.45
2018-11-02T05:12:13.166Z,28.90
2018-11-02T05:12:48.070Z,29.67
2018-11-02T05:13:23.209Z,24.40
2018-11-02T05:13:58.290Z,23.95
2018-11-02T05:14:33.093Z,22.15
2018-11-02T05:15:08.310Z,22.37
2018-11-02T05:15:43.490Z,25.05
2018-11-02T05:16:18.809Z,35.65
2018-11-02T05:16:54.109Z,25.35
2018-11-02T05:17:29.489Z,29.25
2018-11-02T05:18:04.669Z,30.60
2018-11-02T05:18:40.014Z,26.40
2018-11-02T05:19:15.131Z,30.72
2018-11-02T05:19:50.189Z,28.17
2018-11-02T05:20:25.509Z,22.60
2018-11-02T05:21:00.768Z,29.32
2018-11-02T05:21:35.877Z,25.10
2018-11-02T05:22:11.155Z,23.25
2018-11-02T05:22:46.236Z,23.75
2018-11-02T05:23:21.216Z,31.10
2018-11-02T05:23:56.095Z,25.92
2018-11-02T05:24:31.036Z,23.92
2018-11-02T05:25:06.356Z,31.77
2018-11-02T05:25:41.240Z,29.95
2018-11-02T05:26:16.341Z,21.75
2018-11-02T05:26:51.256Z,18.25
2018-11-02T05:27:26.316Z,19.82
2018-11-02T05:28:01.236Z,27.02
2018-11-02T05:28:36.445Z,23.18
2018-11-02T05:29:11.424Z,27.62
2018-11-02T05:29:46.691Z,30.80
2018-11-02T05:30:21.816Z,28.60
2018-11-02T05:30:57.254Z,22.62
2018-11-02T05:31:32.295Z,25.68
2018-11-02T05:32:07.914Z,29.40
2018-11-02T05:32:43.014Z,34.85
2018-11-02T05:33:18.076Z,23.98
2018-11-02T05:33:53.320Z,23.30
2018-11-02T05:34:31.322Z,37.17
2018-11-02T05:35:06.435Z,32.00
2018-11-02T05:35:41.543Z,36.20
2018-11-02T05:36:16.774Z,35.08
2018-11-02T05:36:51.694Z,32.17
2018-11-02T05:37:27.094Z,38.38
2018-11-02T05:38:02.114Z,34.70
2018-11-02T05:38:36.936Z,33.83
2018-11-02T05:39:13.098Z,40.55
2018-11-02T05:39:47.814Z,39.55
2018-11-02T05:40:22.462Z,45.12
2018-11-02T05:40:57.215Z,45.60
2018-11-02T05:41:31.855Z,46.70
2018-11-02T05:42:06.874Z,34.70
2018-11-02T05:42:41.594Z,21.20
2018-11-02T05:43:16.214Z,23.42
2018-11-02T05:43:50.897Z,19.75
2018-11-02T05:44:25.646Z,21.20
2018-11-02T05:45:00.535Z,26.73
2018-11-02T05:45:35.254Z,31.75
2018-11-02T05:46:09.895Z,32.73
2018-11-02T05:46:44.554Z,28.05
2018-11-02T05:47:19.194Z,30.75
2018-11-02T05:47:54.037Z,32.15
2018-11-02T05:48:28.929Z,30.48
2018-11-02T05:49:04.774Z,21.85
2018-11-02T05:49:39.380Z,29.95
2018-11-02T05:50:14.075Z,27.35
2018-11-02T05:50:48.718Z,33.75
2018-11-02T05:51:23.478Z,37.50
2018-11-02T05:51:58.294Z,57.05
2018-11-02T05:52:32.882Z,65.42
2018-11-02T05:53:07.816Z,46.18
2018-11-02T05:53:42.335Z,34.88
2018-11-02T05:54:17.111Z,36.95
2018-11-02T05:54:51.814Z,38.80
2018-11-02T05:55:26.434Z,43.35
2018-11-02T05:56:01.094Z,45.48
2018-11-02T05:56:35.738Z,46.60
2018-11-02T05:57:10.614Z,41.05
2018-11-02T05:57:45.299Z,42.90
2018-11-02T05:58:20.034Z,60.43
2018-11-02T05:58:54.654Z,39.88
2018-11-02T05:59:29.454Z,47.88
2018-11-02T06:00:04.235Z,45.43
2018-11-02T06:00:38.955Z,45.55
2018-11-02T06:01:13.617Z,34.48
2018-11-02T06:01:48.296Z,43.17
2018-11-02T06:02:23.115Z,35.13
2018-11-02T06:02:57.774Z,40.25
2018-11-02T06:03:32.574Z,36.23
2018-11-02T06:04:07.394Z,48.08
2018-11-02T06:04:42.141Z,43.95
2018-11-02T06:05:16.776Z,58.23
2018-11-02T06:05:51.348Z,67.42
2018-11-02T06:06:26.138Z,49.05
2018-11-02T06:07:01.182Z,60.73
2018-11-02T06:07:36.095Z,64.75
2018-11-02T06:08:10.815Z,48.30
2018-11-02T06:08:45.514Z,53.15
2018-11-02T06:09:20.234Z,147.15
2018-11-02T06:09:55.002Z,194.45
2018-11-02T06:10:29.634Z,122.28
2018-11-02T06:11:04.373Z,38.83
2018-11-02T06:11:39.134Z,44.90
2018-11-02T06:12:13.894Z,99.00
2018-11-02T06:12:48.554Z,168.32
2018-11-02T06:13:23.253Z,109.65
2018-11-02T06:13:57.963Z,113.20
2018-11-02T06:14:32.854Z,133.30
2018-11-02T06:15:07.602Z,43.40
2018-11-02T06:15:42.234Z,43.63
2018-11-02T06:16:16.838Z,38.50
2018-11-02T06:16:51.852Z,31.48
2018-11-02T06:17:26.534Z,39.25
2018-11-02T06:18:01.396Z,33.42
2018-11-02T06:18:36.198Z,32.15
2018-11-02T06:19:11.035Z,32.95
2018-11-02T06:19:45.854Z,36.17
2018-11-02T06:20:20.615Z,28.83
2018-11-02T06:20:55.116Z,40.30
2018-11-02T06:21:29.774Z,29.55
2018-11-02T06:22:04.553Z,31.33
2018-11-02T06:22:40.093Z,30.12
2018-11-02T06:23:14.834Z,38.75
2018-11-02T06:23:49.834Z,32.05
2018-11-02T06:24:24.703Z,27.52
2018-11-02T06:24:59.561Z,24.70
2018-11-02T06:25:34.475Z,26.45
2018-11-02T06:26:09.115Z,32.15
2018-11-02T06:26:44.054Z,47.20
2018-11-02T06:27:18.732Z,61.18
2018-11-02T06:27:53.375Z,65.10
2018-11-02T06:28:28.034Z,59.13
2018-11-02T06:29:02.697Z,56.77
2018-11-02T06:29:37.398Z,52.13
2018-11-02T06:30:12.133Z,33.05
2018-11-02T06:30:46.925Z,39.00
2018-11-02T06:31:21.735Z,31.57
2018-11-02T06:31:56.361Z,27.90
2018-11-02T06:32:31.176Z,30.32
2018-11-02T06:33:05.854Z,31.73
2018-11-02T06:33:40.757Z,26.37
2018-11-02T06:34:15.433Z,50.75
2018-11-02T06:34:50.234Z,43.55
2018-11-02T06:35:24.935Z,48.30
2018-11-02T06:35:59.673Z,49.58
2018-11-02T06:36:34.373Z,61.92
2018-11-02T06:37:09.014Z,65.60
2018-11-02T06:37:43.615Z,65.67
2018-11-02T06:38:18.255Z,60.45
2018-11-02T06:38:52.949Z,55.90
2018-11-02T06:39:27.594Z,70.15
2018-11-02T06:40:02.434Z,55.65
2018-11-02T06:40:37.453Z,60.33
2018-11-02T06:41:12.154Z,46.02
2018-11-02T06:41:47.255Z,67.97
2018-11-02T06:42:22.115Z,49.80
2018-11-02T06:42:56.914Z,88.17
2018-11-02T06:43:31.675Z,132.52
2018-11-02T06:44:06.314Z,139.65
2018-11-02T06:44:41.052Z,113.75
2018-11-02T06:45:15.958Z,128.55
2018-11-02T06:45:50.673Z,105.60
2018-11-02T06:46:25.273Z,92.85
2018-11-02T06:47:00.002Z,47.25
2018-11-02T06:47:34.786Z,52.83
2018-11-02T06:48:09.521Z,50.03
2018-11-02T06:48:44.314Z,41.83
2018-11-02T06:49:18.862Z,43.40
2018-11-02T06:49:53.455Z,35.08
2018-11-02T06:50:28.335Z,34.78
2018-11-02T06:51:03.047Z,41.70
2018-11-02T06:51:37.834Z,34.15
2018-11-02T06:52:12.834Z,29.98
2018-11-02T06:52:47.913Z,26.27
2018-11-02T06:53:23.102Z,37.75
2018-11-02T06:53:57.674Z,33.40
2018-11-02T06:54:32.215Z,30.80
2018-11-02T06:55:08.353Z,27.25
2018-11-02T06:55:43.442Z,26.33
2018-11-02T06:56:18.073Z,22.60
2018-11-02T06:56:52.736Z,21.97
2018-11-02T06:57:27.543Z,23.32
2018-11-02T06:58:02.134Z,24.20
2018-11-02T06:58:36.940Z,25.55
2018-11-02T06:59:11.858Z,26.10
2018-11-02T06:59:46.766Z,25.62
2018-11-02T07:00:21.185Z,23.47
2018-11-02T07:00:55.836Z,21.35
2018-11-02T07:01:30.534Z,32.03
2018-11-02T07:02:05.274Z,23.80
2018-11-02T07:02:40.183Z,21.35
2018-11-02T07:03:14.873Z,25.88
2018-11-02T07:03:49.594Z,21.40
2018-11-02T07:04:24.334Z,33.67
2018-11-02T07:04:58.913Z,37.20
2018-11-02T07:05:33.434Z,28.05
2018-11-02T07:06:08.110Z,29.65
2018-11-02T07:06:42.694Z,32.38
2018-11-02T07:07:17.507Z,31.65
2018-11-02T07:07:52.187Z,34.58
2018-11-02T07:08:27.195Z,38.02
2018-11-02T07:09:01.922Z,26.93
2018-11-02T07:09:36.595Z,28.52
2018-11-02T07:10:11.555Z,32.73
2018-11-02T07:10:46.373Z,32.67
2018-11-02T07:11:21.195Z,26.23
2018-11-02T07:11:55.933Z,25.55
2018-11-02T07:12:30.481Z,26.87
2018-11-02T07:13:05.274Z,35.15
2018-11-02T07:13:39.994Z,36.63
2018-11-02T07:14:14.693Z,30.12
2018-11-02T07:14:49.293Z,29.00
2018-11-02T07:15:23.674Z,27.35
2018-11-02T07:15:58.374Z,29.15
2018-11-02T07:16:33.415Z,31.68
2018-11-02T07:17:08.195Z,28.42
2018-11-02T07:17:42.935Z,32.55
2018-11-02T07:18:17.376Z,68.72
2018-11-02T07:18:52.438Z,48.30
2018-11-02T07:19:27.153Z,38.02
2018-11-02T07:20:01.674Z,29.87
2018-11-02T07:20:36.295Z,26.73
2018-11-02T07:21:11.225Z,34.23
2018-11-02T07:21:46.057Z,61.45
2018-11-02T07:22:20.740Z,39.10
2018-11-02T07:22:55.255Z,66.97
2018-11-02T07:23:29.914Z,55.25
2018-11-02T07:24:04.473Z,46.88
2018-11-02T07:24:39.155Z,42.15
2018-11-02T07:25:13.887Z,48.58
2018-11-02T07:25:48.355Z,39.70
2018-11-02T07:26:23.304Z,46.00
2018-11-02T07:26:58.378Z,43.08
2018-11-02T07:27:33.390Z,43.45
2018-11-02T07:28:09.235Z,50.35
2018-11-02T07:28:44.177Z,52.38
2018-11-02T07:29:18.975Z,55.35
2018-11-02T07:29:53.664Z,58.95
2018-11-02T07:30:28.823Z,68.72